createdAt,value
2024-02-17T00:08:32.854Z,75576.47
2024-02-17T00:18:45.101Z,75576.47
2024-02-17T00:28:49.189Z,75576.47
2024-02-17T00:38:57.608Z,75592.66
2024-02-17T00:49:02.547Z,75578.50
2024-02-17T00:59:04.829Z,75576.47
2024-02-17T01:09:08.879Z,75568.38
2024-02-17T01:19:11.370Z,75570.41
2024-02-17T01:29:20.346Z,75564.34
2024-02-17T01:39:28.762Z,75556.25
2024-02-17T01:49:31.964Z,75548.13
2024-02-17T01:59:35.122Z,75540.03
2024-02-17T02:09:37.659Z,75529.94
2024-02-17T02:19:42.360Z,75519.81
2024-02-17T02:29:50.167Z,75507.66
2024-02-17T02:39:54.880Z,75505.66
2024-02-17T02:50:01.560Z,75493.50
2024-02-17T03:00:05.388Z,75495.53
2024-02-17T03:10:08.327Z,75469.22
2024-02-17T03:20:14.480Z,75461.13
2024-02-17T03:30:16.917Z,75455.06
2024-02-17T03:40:25.589Z,75446.97
2024-02-17T03:50:31.369Z,75434.81
2024-02-17T04:00:33.740Z,75410.53
2024-02-17T04:10:38.823Z,75386.25
2024-02-17T04:20:41.161Z,75366.00
2024-02-17T04:30:43.740Z,75343.75
2024-02-17T04:40:48.918Z,75325.53
2024-02-17T04:50:53.842Z,75315.41
2024-02-17T05:00:58.561Z,75317.44
2024-02-17T05:11:03.355Z,75311.38
2024-02-17T05:21:08.105Z,75299.22
2024-02-17T05:31:27.884Z,75311.38
2024-02-17T05:41:30.286Z,75325.53
2024-02-17T05:51:37.459Z,75353.88
2024-02-17T06:01:39.767Z,75370.06
2024-02-17T06:11:42.064Z,75394.34
2024-02-17T06:21:51.762Z,75406.47
2024-02-17T06:31:56.381Z,75434.81
2024-02-17T06:42:02.400Z,75451.00
2024-02-17T06:52:07.041Z,75451.00
2024-02-17T07:02:09.322Z,75444.94
2024-02-17T07:12:13.105Z,75451.00
2024-02-17T07:22:18.328Z,75436.84
2024-02-17T07:32:24.497Z,75442.91
2024-02-17T07:42:29.991Z,75442.91
2024-02-17T07:52:35.883Z,75426.72
2024-02-17T08:02:40.518Z,75418.63
2024-02-17T08:12:45.877Z,75426.72
2024-02-17T08:22:49.761Z,75428.75
2024-02-17T08:32:55.584Z,75430.75
2024-02-17T08:43:00.257Z,75426.72
2024-02-17T08:53:05.798Z,75426.72
2024-02-17T09:03:15.012Z,75420.66
2024-02-17T09:13:24.031Z,75426.72
2024-02-17T09:23:26.283Z,75434.81
2024-02-17T09:33:31.813Z,75457.06
2024-02-17T09:43:39.164Z,75442.91
2024-02-17T09:53:43.568Z,75455.06
2024-02-17T10:03:45.933Z,75455.06
2024-02-17T10:14:06.008Z,75426.72
2024-02-17T10:24:08.978Z,75434.81
2024-02-17T10:34:13.771Z,75428.75
2024-02-17T10:44:20.725Z,75420.66
2024-02-17T10:54:29.941Z,75408.50
2024-02-17T11:04:34.905Z,75402.44
2024-02-17T11:14:40.569Z,75388.28
2024-02-17T11:24:49.996Z,75347.78
2024-02-17T11:34:57.202Z,75337.69
2024-02-17T11:45:01.760Z,75323.50
2024-02-17T11:55:10.316Z,75319.47
2024-02-17T12:05:17.404Z,75303.28
2024-02-17T12:15:20.337Z,75295.19
2024-02-17T12:25:29.822Z,75303.28
2024-02-17T12:35:32.140Z,75323.50
2024-02-17T12:45:34.632Z,75331.59
2024-02-17T12:55:39.344Z,75297.22
2024-02-17T13:05:46.314Z,75317.44
2024-02-17T13:15:52.700Z,75297.22
2024-02-17T13:26:00.367Z,75301.25
2024-02-17T13:36:03.354Z,75319.47
2024-02-17T13:46:07.909Z,75339.69
2024-02-17T13:56:12.519Z,75341.72
2024-02-17T14:06:17.487Z,75378.16
2024-02-17T14:16:19.849Z,75430.75
2024-02-17T14:26:23.305Z,75446.97
2024-02-17T14:36:28.118Z,75465.16
2024-02-17T14:46:37.922Z,75475.28
2024-02-17T14:56:40.196Z,75511.72
2024-02-17T15:06:43.485Z,75574.44
2024-02-17T15:16:45.739Z,75708.03
2024-02-17T15:26:48.042Z,75766.72
2024-02-17T15:36:52.851Z,75859.81
2024-02-17T15:46:55.282Z,75908.38
2024-02-17T15:56:58.018Z,75948.84
2024-02-17T16:07:03.160Z,75961.00
2024-02-17T16:17:05.638Z,75981.25
2024-02-17T16:27:08.282Z,76017.66
2024-02-17T16:37:10.509Z,76046.00
2024-02-17T16:47:13.708Z,76080.41
2024-02-17T16:57:16.056Z,76106.72
2024-02-17T17:07:22.134Z,76122.91
2024-02-17T17:17:24.607Z,76173.53
2024-02-17T17:27:28.354Z,76163.41
2024-02-17T17:37:35.184Z,76179.59
2024-02-17T17:47:39.924Z,76211.97
2024-02-17T17:57:42.360Z,76220.06
2024-02-17T18:07:49.116Z,76252.47
2024-02-17T18:17:53.900Z,76276.75
2024-02-17T18:28:01.385Z,76311.16
2024-02-17T18:38:03.813Z,76327.34
2024-02-17T18:48:08.547Z,76329.38
2024-02-17T18:58:10.929Z,76349.63
2024-02-17T19:08:21.096Z,76353.66
2024-02-17T19:18:28.233Z,76386.03
2024-02-17T19:28:33.045Z,76392.13
2024-02-17T19:38:39.790Z,76412.34
2024-02-17T19:48:43.062Z,76418.44
2024-02-17T19:59:09.871Z,76442.72
2024-02-17T20:09:14.623Z,76483.22
2024-02-17T20:19:17.574Z,76513.56
2024-02-17T20:29:19.888Z,76535.84
2024-02-17T20:39:23.107Z,76543.94
2024-02-17T20:49:25.443Z,76604.66
2024-02-17T20:59:30.311Z,76701.81
2024-02-17T21:09:32.809Z,76752.44
2024-02-17T21:19:39.240Z,76811.13
2024-02-17T21:29:44.066Z,76839.47
2024-02-17T21:39:51.810Z,76867.81
2024-02-17T21:49:54.157Z,76896.16
2024-02-17T21:59:58.989Z,76942.72
2024-02-17T22:10:03.311Z,76965.00
2024-02-17T22:20:12.009Z,76938.66
2024-02-17T22:30:14.614Z,76956.91
2024-02-17T22:40:24.047Z,76981.19
2024-02-17T22:50:29.367Z,77054.06
2024-02-17T23:00:36.535Z,77031.81
2024-02-17T23:10:40.145Z,77043.94
2024-02-17T23:20:42.384Z,77074.31
2024-02-17T23:30:46.866Z,77074.31
2024-02-17T23:40:51.311Z,77104.69
2024-02-17T23:50:56.055Z,77122.91
